sensor_id;sensor_type;location;lat;lon;timestamp;temperature;humidity
71367;DHT22;60030;52.274;8.040;2022-08-18T00:00:08;21.50;99.90
71367;DHT22;60030;52.274;8.040;2022-08-18T00:02:40;21.40;99.90
71367;DHT22;60030;52.274;8.040;2022-08-18T00:05:09;21.50;99.90
71367;DHT22;60030;52.274;8.040;2022-08-18T00:07:37;21.60;99.90
71367;DHT22;60030;52.274;8.040;2022-08-18T00:10:05;21.50;99.90
71367;DHT22;60030;52.274;8.040;2022-08-18T00:12:34;21.30;99.90
71367;DHT22;60030;52.274;8.040;2022-08-18T00:15:03;21.20;99.90
71367;DHT22;60030;52.274;8.040;2022-08-18T00:17:31;21.20;99.90
71367;DHT22;60030;52.274;8.040;2022-08-18T00:20:00;21.30;99.90
71367;DHT22;60030;52.274;8.040;2022-08-18T00:22:27;21.30;99.90
71367;DHT22;60030;52.274;8.040;2022-08-18T00:24:56;21.10;99.90
71367;DHT22;60030;52.274;8.040;2022-08-18T00:27:25;21.10;99.90
71367;DHT22;60030;52.274;8.040;2022-08-18T00:29:53;20.70;99.90
71367;DHT22;60030;52.274;8.040;2022-08-18T00:32:23;20.90;99.90
71367;DHT22;60030;52.274;8.040;2022-08-18T00:34:53;21.00;99.90
71367;DHT22;60030;52.274;8.040;2022-08-18T00:37:23;21.00;99.90
71367;DHT22;60030;52.274;8.040;2022-08-18T00:39:50;21.00;99.90
71367;DHT22;60030;52.274;8.040;2022-08-18T00:42:21;21.00;99.90
71367;DHT22;60030;52.274;8.040;2022-08-18T00:44:49;20.90;99.90
71367;DHT22;60030;52.274;8.040;2022-08-18T00:47:16;21.00;99.90
71367;DHT22;60030;52.274;8.040;2022-08-18T00:49:44;21.00;99.90
71367;DHT22;60030;52.274;8.040;2022-08-18T00:52:13;21.00;99.90
71367;DHT22;60030;52.274;8.040;2022-08-18T00:54:43;20.90;99.90
71367;DHT22;60030;52.274;8.040;2022-08-18T00:57:12;21.10;99.90
71367;DHT22;60030;52.274;8.040;2022-08-18T00:59:44;21.10;99.90
71367;DHT22;60030;52.274;8.040;2022-08-18T01:02:18;21.10;99.90
71367;DHT22;60030;52.274;8.040;2022-08-18T01:04:49;21.00;99.90
71367;DHT22;60030;52.274;8.040;2022-08-18T01:07:21;20.70;99.90
71367;DHT22;60030;52.274;8.040;2022-08-18T01:09:52;20.70;99.90
71367;DHT22;60030;52.274;8.040;2022-08-18T01:12:19;20.70;99.90
71367;DHT22;60030;52.274;8.040;2022-08-18T01:14:46;20.70;99.90
71367;DHT22;60030;52.274;8.040;2022-08-18T01:17:13;20.60;99.90
71367;DHT22;60030;52.274;8.040;2022-08-18T01:19:58;20.70;99.90
71367;DHT22;60030;52.274;8.040;2022-08-18T01:22:53;20.70;99.90
71367;DHT22;60030;52.274;8.040;2022-08-18T01:25:21;20.70;99.90
71367;DHT22;60030;52.274;8.040;2022-08-18T01:28:06;20.60;99.90
71367;DHT22;60030;52.274;8.040;2022-08-18T01:30:45;20.70;99.90
71367;DHT22;60030;52.274;8.040;2022-08-18T01:33:13;20.60;99.90
71367;DHT22;60030;52.274;8.040;2022-08-18T01:35:42;20.60;99.90
71367;DHT22;60030;52.274;8.040;2022-08-18T01:38:16;20.70;99.90
71367;DHT22;60030;52.274;8.040;2022-08-18T01:40:44;20.60;99.90
71367;DHT22;60030;52.274;8.040;2022-08-18T01:43:11;20.60;99.90
71367;DHT22;60030;52.274;8.040;2022-08-18T01:45:39;20.50;99.90
71367;DHT22;60030;52.274;8.040;2022-08-18T01:48:07;20.50;99.90
71367;DHT22;60030;52.274;8.040;2022-08-18T01:50:35;20.50;99.90
71367;DHT22;60030;52.274;8.040;2022-08-18T01:53:02;20.50;99.90
71367;DHT22;60030;52.274;8.040;2022-08-18T01:55:32;20.60;99.90
71367;DHT22;60030;52.274;8.040;2022-08-18T01:57:59;20.50;99.90
71367;DHT22;60030;52.274;8.040;2022-08-18T02:00:27;20.60;99.90
71367;DHT22;60030;52.274;8.040;2022-08-18T02:02:57;20.60;99.90
71367;DHT22;60030;52.274;8.040;2022-08-18T02:05:30;20.50;99.90
71367;DHT22;60030;52.274;8.040;2022-08-18T02:07:58;20.50;99.90
71367;DHT22;60030;52.274;8.040;2022-08-18T02:10:25;20.50;99.90
71367;DHT22;60030;52.274;8.040;2022-08-18T02:12:54;20.60;99.90
71367;DHT22;60030;52.274;8.040;2022-08-18T02:15:21;20.50;99.90
71367;DHT22;60030;52.274;8.040;2022-08-18T02:17:48;20.60;99.90
71367;DHT22;60030;52.274;8.040;2022-08-18T02:20:17;20.60;99.90
71367;DHT22;60030;52.274;8.040;2022-08-18T02:22:46;20.60;99.90
71367;DHT22;60030;52.274;8.040;2022-08-18T02:25:14;20.60;99.90
71367;DHT22;60030;52.274;8.040;2022-08-18T02:27:41;20.60;99.90
71367;DHT22;60030;52.274;8.040;2022-08-18T02:30:13;20.60;99.90
71367;DHT22;60030;52.274;8.040;2022-08-18T02:32:40;20.60;99.90
71367;DHT22;60030;52.274;8.040;2022-08-18T02:35:08;20.50;99.90
71367;DHT22;60030;52.274;8.040;2022-08-18T02:37:37;20.50;99.90
71367;DHT22;60030;52.274;8.040;2022-08-18T02:40:05;20.60;99.90
71367;DHT22;60030;52.274;8.040;2022-08-18T02:42:32;20.60;99.90
71367;DHT22;60030;52.274;8.040;2022-08-18T02:44:59;20.60;99.90
71367;DHT22;60030;52.274;8.040;2022-08-18T02:47:28;20.60;99.90
71367;DHT22;60030;52.274;8.040;2022-08-18T02:49:55;20.50;99.90
71367;DHT22;60030;52.274;8.040;2022-08-18T02:52:22;20.60;99.90
71367;DHT22;60030;52.274;8.040;2022-08-18T02:54:51;20.40;99.90
71367;DHT22;60030;52.274;8.040;2022-08-18T02:57:18;20.40;99.90
71367;DHT22;60030;52.274;8.040;2022-08-18T02:59:48;20.40;99.90
71367;DHT22;60030;52.274;8.040;2022-08-18T03:02:15;20.40;99.90
71367;DHT22;60030;52.274;8.040;2022-08-18T03:04:44;20.40;99.90
71367;DHT22;60030;52.274;8.040;2022-08-18T03:07:11;20.40;99.90
71367;DHT22;60030;52.274;8.040;2022-08-18T03:09:42;20.40;99.90
71367;DHT22;60030;52.274;8.040;2022-08-18T03:12:09;20.40;99.90
71367;DHT22;60030;52.274;8.040;2022-08-18T03:14:37;20.40;99.90
71367;DHT22;60030;52.274;8.040;2022-08-18T03:17:06;20.10;99.90
71367;DHT22;60030;52.274;8.040;2022-08-18T03:19:34;20.20;99.90
71367;DHT22;60030;52.274;8.040;2022-08-18T03:22:03;20.30;99.90
71367;DHT22;60030;52.274;8.040;2022-08-18T03:24:33;20.30;99.90
71367;DHT22;60030;52.274;8.040;2022-08-18T03:27:04;20.30;99.90
71367;DHT22;60030;52.274;8.040;2022-08-18T03:29:32;20.30;99.90
71367;DHT22;60030;52.274;8.040;2022-08-18T03:32:00;20.40;99.90
71367;DHT22;60030;52.274;8.040;2022-08-18T03:34:28;20.40;99.90
71367;DHT22;60030;52.274;8.040;2022-08-18T03:36:56;20.50;99.90
71367;DHT22;60030;52.274;8.040;2022-08-18T03:39:25;20.50;99.90
71367;DHT22;60030;52.274;8.040;2022-08-18T03:41:53;20.60;99.90
71367;DHT22;60030;52.274;8.040;2022-08-18T03:44:21;20.50;99.90
71367;DHT22;60030;52.274;8.040;2022-08-18T03:46:49;20.40;99.90
71367;DHT22;60030;52.274;8.040;2022-08-18T03:49:17;20.30;99.90
71367;DHT22;60030;52.274;8.040;2022-08-18T03:51:46;20.10;99.90
71367;DHT22;60030;52.274;8.040;2022-08-18T03:54:14;20.00;99.90
71367;DHT22;60030;52.274;8.040;2022-08-18T03:56:44;20.00;99.90
71367;DHT22;60030;52.274;8.040;2022-08-18T03:59:13;20.00;99.90
71367;DHT22;60030;52.274;8.040;2022-08-18T04:01:43;20.20;99.90
71367;DHT22;60030;52.274;8.040;2022-08-18T04:04:13;20.30;99.90
71367;DHT22;60030;52.274;8.040;2022-08-18T04:06:44;20.30;99.90
71367;DHT22;60030;52.274;8.040;2022-08-18T04:09:14;20.30;99.90
71367;DHT22;60030;52.274;8.040;2022-08-18T04:11:43;20.30;99.90
71367;DHT22;60030;52.274;8.040;2022-08-18T04:14:11;20.20;99.90
71367;DHT22;60030;52.274;8.040;2022-08-18T04:16:39;20.30;99.90
71367;DHT22;60030;52.274;8.040;2022-08-18T04:19:07;20.20;99.90
71367;DHT22;60030;52.274;8.040;2022-08-18T04:21:36;20.20;99.90
71367;DHT22;60030;52.274;8.040;2022-08-18T04:24:05;20.20;99.90
71367;DHT22;60030;52.274;8.040;2022-08-18T04:26:35;20.30;99.90
71367;DHT22;60030;52.274;8.040;2022-08-18T04:29:04;20.30;99.90
71367;DHT22;60030;52.274;8.040;2022-08-18T04:31:32;20.40;99.90
71367;DHT22;60030;52.274;8.040;2022-08-18T04:34:00;20.30;99.90
71367;DHT22;60030;52.274;8.040;2022-08-18T04:36:29;20.40;99.90
71367;DHT22;60030;52.274;8.040;2022-08-18T04:38:59;20.30;99.90
71367;DHT22;60030;52.274;8.040;2022-08-18T04:41:27;20.20;99.90
71367;DHT22;60030;52.274;8.040;2022-08-18T04:43:55;20.30;99.90
71367;DHT22;60030;52.274;8.040;2022-08-18T04:46:25;20.30;99.90
71367;DHT22;60030;52.274;8.040;2022-08-18T04:48:53;20.40;99.90
71367;DHT22;60030;52.274;8.040;2022-08-18T04:51:24;20.40;99.90
71367;DHT22;60030;52.274;8.040;2022-08-18T04:53:52;20.40;99.90
71367;DHT22;60030;52.274;8.040;2022-08-18T04:56:21;20.40;99.90
71367;DHT22;60030;52.274;8.040;2022-08-18T04:58:52;20.30;99.90
71367;DHT22;60030;52.274;8.040;2022-08-18T05:01:21;20.40;99.90
71367;DHT22;60030;52.274;8.040;2022-08-18T05:03:51;20.40;99.90
71367;DHT22;60030;52.274;8.040;2022-08-18T05:06:20;20.40;99.90
71367;DHT22;60030;52.274;8.040;2022-08-18T05:08:50;20.50;99.90
71367;DHT22;60030;52.274;8.040;2022-08-18T05:11:18;20.40;99.90
71367;DHT22;60030;52.274;8.040;2022-08-18T05:13:46;20.50;99.90
71367;DHT22;60030;52.274;8.040;2022-08-18T05:16:13;20.40;99.90
71367;DHT22;60030;52.274;8.040;2022-08-18T05:18:40;20.40;99.90
71367;DHT22;60030;52.274;8.040;2022-08-18T05:21:09;20.40;99.90
71367;DHT22;60030;52.274;8.040;2022-08-18T05:23:40;20.50;99.90
71367;DHT22;60030;52.274;8.040;2022-08-18T05:26:08;20.50;99.90
71367;DHT22;60030;52.274;8.040;2022-08-18T05:28:35;20.50;99.90
71367;DHT22;60030;52.274;8.040;2022-08-18T05:31:07;20.50;99.90
71367;DHT22;60030;52.274;8.040;2022-08-18T05:33:34;20.40;99.90
71367;DHT22;60030;52.274;8.040;2022-08-18T05:36:05;20.50;99.90
71367;DHT22;60030;52.274;8.040;2022-08-18T05:38:50;20.60;99.90
71367;DHT22;60030;52.274;8.040;2022-08-18T05:41:23;20.70;99.90
71367;DHT22;60030;52.274;8.040;2022-08-18T05:43:53;20.80;99.90
71367;DHT22;60030;52.274;8.040;2022-08-18T05:46:29;20.90;99.90
71367;DHT22;60030;52.274;8.040;2022-08-18T05:48:58;20.90;99.90
71367;DHT22;60030;52.274;8.040;2022-08-18T05:51:30;20.90;99.90
71367;DHT22;60030;52.274;8.040;2022-08-18T05:54:01;20.70;99.90
71367;DHT22;60030;52.274;8.040;2022-08-18T05:56:46;20.70;99.90
71367;DHT22;60030;52.274;8.040;2022-08-18T05:59:21;20.80;99.90
71367;DHT22;60030;52.274;8.040;2022-08-18T06:01:54;20.90;99.90
71367;DHT22;60030;52.274;8.040;2022-08-18T06:04:27;20.80;99.90
71367;DHT22;60030;52.274;8.040;2022-08-18T06:06:55;20.80;99.90
71367;DHT22;60030;52.274;8.040;2022-08-18T06:09:31;20.80;99.90
71367;DHT22;60030;52.274;8.040;2022-08-18T06:12:12;20.80;99.90
71367;DHT22;60030;52.274;8.040;2022-08-18T06:14:42;20.90;99.90
71367;DHT22;60030;52.274;8.040;2022-08-18T06:17:21;20.90;99.90
71367;DHT22;60030;52.274;8.040;2022-08-18T06:19:56;20.90;99.90
71367;DHT22;60030;52.274;8.040;2022-08-18T06:22:31;20.80;99.90
71367;DHT22;60030;52.274;8.040;2022-08-18T06:25:11;20.70;99.90
71367;DHT22;60030;52.274;8.040;2022-08-18T06:27:46;20.70;99.90
71367;DHT22;60030;52.274;8.040;2022-08-18T06:30:24;20.70;99.90
71367;DHT22;60030;52.274;8.040;2022-08-18T06:33:07;20.70;99.90
71367;DHT22;60030;52.274;8.040;2022-08-18T06:35:43;20.70;99.90
71367;DHT22;60030;52.274;8.040;2022-08-18T06:38:27;20.80;99.90
71367;DHT22;60030;52.274;8.040;2022-08-18T06:41:14;21.00;99.90
71367;DHT22;60030;52.274;8.040;2022-08-18T06:43:51;21.00;99.90
71367;DHT22;60030;52.274;8.040;2022-08-18T06:46:28;21.10;99.90
71367;DHT22;60030;52.274;8.040;2022-08-18T06:49:02;20.90;99.90
71367;DHT22;60030;52.274;8.040;2022-08-18T06:51:30;20.90;99.90
71367;DHT22;60030;52.274;8.040;2022-08-18T06:54:00;21.00;99.90
71367;DHT22;60030;52.274;8.040;2022-08-18T06:56:45;21.10;99.90
71367;DHT22;60030;52.274;8.040;2022-08-18T06:59:15;21.10;99.90
71367;DHT22;60030;52.274;8.040;2022-08-18T07:01:44;21.10;99.90
71367;DHT22;60030;52.274;8.040;2022-08-18T07:04:29;21.10;99.90
71367;DHT22;60030;52.274;8.040;2022-08-18T07:06:56;21.20;99.90
71367;DHT22;60030;52.274;8.040;2022-08-18T07:09:33;21.30;99.90
71367;DHT22;60030;52.274;8.040;2022-08-18T07:12:05;21.30;99.90
71367;DHT22;60030;52.274;8.040;2022-08-18T07:14:42;21.30;99.90
71367;DHT22;60030;52.274;8.040;2022-08-18T07:17:12;21.40;99.90
71367;DHT22;60030;52.274;8.040;2022-08-18T07:19:39;21.40;99.90
71367;DHT22;60030;52.274;8.040;2022-08-18T07:22:09;21.40;99.90
71367;DHT22;60030;52.274;8.040;2022-08-18T07:24:39;21.30;99.90
71367;DHT22;60030;52.274;8.040;2022-08-18T07:27:11;21.30;99.90
71367;DHT22;60030;52.274;8.040;2022-08-18T07:29:39;21.50;99.90
71367;DHT22;60030;52.274;8.040;2022-08-18T07:32:12;21.50;99.90
71367;DHT22;60030;52.274;8.040;2022-08-18T07:34:45;21.40;99.90
71367;DHT22;60030;52.274;8.040;2022-08-18T07:37:20;21.50;99.90
71367;DHT22;60030;52.274;8.040;2022-08-18T07:39:52;21.60;99.90
71367;DHT22;60030;52.274;8.040;2022-08-18T07:42:30;21.50;99.90
71367;DHT22;60030;52.274;8.040;2022-08-18T07:45:04;21.50;99.90
71367;DHT22;60030;52.274;8.040;2022-08-18T07:47:37;21.30;99.90
71367;DHT22;60030;52.274;8.040;2022-08-18T07:50:06;21.30;99.90
71367;DHT22;60030;52.274;8.040;2022-08-18T07:52:37;21.40;99.90
71367;DHT22;60030;52.274;8.040;2022-08-18T07:55:12;21.50;99.90
71367;DHT22;60030;52.274;8.040;2022-08-18T07:57:48;21.50;99.90
71367;DHT22;60030;52.274;8.040;2022-08-18T08:00:21;21.60;99.90
71367;DHT22;60030;52.274;8.040;2022-08-18T08:03:10;21.80;99.90
71367;DHT22;60030;52.274;8.040;2022-08-18T08:05:55;21.90;99.90
71367;DHT22;60030;52.274;8.040;2022-08-18T08:08:27;22.00;99.90
71367;DHT22;60030;52.274;8.040;2022-08-18T08:11:06;22.20;99.90
71367;DHT22;60030;52.274;8.040;2022-08-18T08:13:43;22.40;99.90
71367;DHT22;60030;52.274;8.040;2022-08-18T08:16:17;22.50;99.90
71367;DHT22;60030;52.274;8.040;2022-08-18T08:18:53;22.50;99.90
71367;DHT22;60030;52.274;8.040;2022-08-18T08:21:23;22.60;99.90
71367;DHT22;60030;52.274;8.040;2022-08-18T08:24:09;22.60;99.90
71367;DHT22;60030;52.274;8.040;2022-08-18T08:26:47;22.60;99.90
71367;DHT22;60030;52.274;8.040;2022-08-18T08:29:28;22.60;99.90
71367;DHT22;60030;52.274;8.040;2022-08-18T08:32:03;22.80;99.90
71367;DHT22;60030;52.274;8.040;2022-08-18T08:34:37;22.90;99.90
71367;DHT22;60030;52.274;8.040;2022-08-18T08:37:09;22.90;99.90
71367;DHT22;60030;52.274;8.040;2022-08-18T08:39:44;22.90;99.90
71367;DHT22;60030;52.274;8.040;2022-08-18T08:42:16;23.00;99.90
71367;DHT22;60030;52.274;8.040;2022-08-18T08:44:51;22.90;99.90
71367;DHT22;60030;52.274;8.040;2022-08-18T08:47:24;22.90;99.90
71367;DHT22;60030;52.274;8.040;2022-08-18T08:49:56;22.80;99.90
71367;DHT22;60030;52.274;8.040;2022-08-18T08:52:28;22.90;99.90
71367;DHT22;60030;52.274;8.040;2022-08-18T08:55:02;22.90;99.90
71367;DHT22;60030;52.274;8.040;2022-08-18T08:57:40;23.00;99.90
71367;DHT22;60030;52.274;8.040;2022-08-18T09:00:10;23.10;99.90
71367;DHT22;60030;52.274;8.040;2022-08-18T09:02:56;23.30;99.90
71367;DHT22;60030;52.274;8.040;2022-08-18T09:05:29;23.40;99.90
71367;DHT22;60030;52.274;8.040;2022-08-18T09:11:05;23.30;99.90
71367;DHT22;60030;52.274;8.040;2022-08-18T09:16:47;23.00;99.90
71367;DHT22;60030;52.274;8.040;2022-08-18T09:19:40;22.90;99.90
71367;DHT22;60030;52.274;8.040;2022-08-18T09:22:22;22.90;99.90
71367;DHT22;60030;52.274;8.040;2022-08-18T09:24:53;22.90;99.90
71367;DHT22;60030;52.274;8.040;2022-08-18T09:27:31;23.00;99.90
71367;DHT22;60030;52.274;8.040;2022-08-18T09:30:03;23.10;99.90
71367;DHT22;60030;52.274;8.040;2022-08-18T09:32:41;22.90;99.90
71367;DHT22;60030;52.274;8.040;2022-08-18T09:35:22;22.60;99.90
71367;DHT22;60030;52.274;8.040;2022-08-18T09:37:54;22.50;99.90
71367;DHT22;60030;52.274;8.040;2022-08-18T09:40:45;22.30;99.90
71367;DHT22;60030;52.274;8.040;2022-08-18T09:43:35;22.20;99.90
71367;DHT22;60030;52.274;8.040;2022-08-18T09:46:06;22.60;99.90
71367;DHT22;60030;52.274;8.040;2022-08-18T09:48:36;22.80;99.90
71367;DHT22;60030;52.274;8.040;2022-08-18T09:51:33;22.80;99.90
71367;DHT22;60030;52.274;8.040;2022-08-18T09:54:10;22.70;99.90
71367;DHT22;60030;52.274;8.040;2022-08-18T10:03:21;22.90;99.90
71367;DHT22;60030;52.274;8.040;2022-08-18T10:06:16;23.00;99.90
71367;DHT22;60030;52.274;8.040;2022-08-18T10:12:05;23.40;99.90
71367;DHT22;60030;52.274;8.040;2022-08-18T10:17:44;23.40;99.90
71367;DHT22;60030;52.274;8.040;2022-08-18T10:20:23;23.50;99.90
71367;DHT22;60030;52.274;8.040;2022-08-18T10:22:53;23.90;99.90
71367;DHT22;60030;52.274;8.040;2022-08-18T10:25:35;24.00;99.90
71367;DHT22;60030;52.274;8.040;2022-08-18T10:28:04;24.30;99.90
71367;DHT22;60030;52.274;8.040;2022-08-18T10:31:00;24.40;99.90
71367;DHT22;60030;52.274;8.040;2022-08-18T10:33:59;24.50;99.90
71367;DHT22;60030;52.274;8.040;2022-08-18T10:36:39;24.40;99.90
71367;DHT22;60030;52.274;8.040;2022-08-18T10:39:12;24.80;99.90
71367;DHT22;60030;52.274;8.040;2022-08-18T10:42:00;24.70;99.90
71367;DHT22;60030;52.274;8.040;2022-08-18T10:44:31;24.70;99.90
71367;DHT22;60030;52.274;8.040;2022-08-18T10:47:01;24.60;99.90
71367;DHT22;60030;52.274;8.040;2022-08-18T10:49:30;24.70;99.90
71367;DHT22;60030;52.274;8.040;2022-08-18T10:55:17;24.60;99.90
71367;DHT22;60030;52.274;8.040;2022-08-18T10:58:08;24.80;99.90
71367;DHT22;60030;52.274;8.040;2022-08-18T11:00:47;24.90;99.90
71367;DHT22;60030;52.274;8.040;2022-08-18T11:03:26;25.10;99.90
71367;DHT22;60030;52.274;8.040;2022-08-18T11:06:02;25.30;99.90
71367;DHT22;60030;52.274;8.040;2022-08-18T11:08:30;25.60;99.90
71367;DHT22;60030;52.274;8.040;2022-08-18T11:11:07;25.80;99.90
71367;DHT22;60030;52.274;8.040;2022-08-18T11:13:48;25.40;99.90
71367;DHT22;60030;52.274;8.040;2022-08-18T11:16:27;25.20;99.90
71367;DHT22;60030;52.274;8.040;2022-08-18T11:19:05;25.20;99.90
71367;DHT22;60030;52.274;8.040;2022-08-18T11:21:39;25.30;99.90
71367;DHT22;60030;52.274;8.040;2022-08-18T11:24:12;25.20;99.90
71367;DHT22;60030;52.274;8.040;2022-08-18T11:26:43;25.30;99.90
71367;DHT22;60030;52.274;8.040;2022-08-18T11:29:28;25.60;99.90
71367;DHT22;60030;52.274;8.040;2022-08-18T11:32:00;25.70;99.90
71367;DHT22;60030;52.274;8.040;2022-08-18T11:34:34;26.00;99.90
71367;DHT22;60030;52.274;8.040;2022-08-18T11:37:04;26.20;99.90
71367;DHT22;60030;52.274;8.040;2022-08-18T11:39:33;26.10;99.90
71367;DHT22;60030;52.274;8.040;2022-08-18T11:42:08;26.20;99.90
71367;DHT22;60030;52.274;8.040;2022-08-18T11:44:37;25.90;99.90
71367;DHT22;60030;52.274;8.040;2022-08-18T11:47:13;25.80;99.90
71367;DHT22;60030;52.274;8.040;2022-08-18T11:49:55;25.60;99.90
71367;DHT22;60030;52.274;8.040;2022-08-18T11:52:25;25.40;99.90
71367;DHT22;60030;52.274;8.040;2022-08-18T11:54:58;25.20;99.90
71367;DHT22;60030;52.274;8.040;2022-08-18T11:57:39;25.20;99.90
71367;DHT22;60030;52.274;8.040;2022-08-18T12:00:39;24.80;99.90
71367;DHT22;60030;52.274;8.040;2022-08-18T12:03:09;24.60;99.90
71367;DHT22;60030;52.274;8.040;2022-08-18T12:05:44;24.80;99.90
71367;DHT22;60030;52.274;8.040;2022-08-18T12:08:17;24.80;99.90
71367;DHT22;60030;52.274;8.040;2022-08-18T12:10:46;24.90;99.90
71367;DHT22;60030;52.274;8.040;2022-08-18T12:13:22;24.90;99.90
71367;DHT22;60030;52.274;8.040;2022-08-18T12:16:08;25.20;99.90
71367;DHT22;60030;52.274;8.040;2022-08-18T12:18:36;25.10;99.90
71367;DHT22;60030;52.274;8.040;2022-08-18T12:21:03;25.30;99.90
71367;DHT22;60030;52.274;8.040;2022-08-18T12:23:31;25.60;99.90
71367;DHT22;60030;52.274;8.040;2022-08-18T12:25:58;25.70;99.90
71367;DHT22;60030;52.274;8.040;2022-08-18T12:28:27;25.90;99.90
71367;DHT22;60030;52.274;8.040;2022-08-18T12:30:54;25.90;99.90
71367;DHT22;60030;52.274;8.040;2022-08-18T12:33:21;25.70;99.90
71367;DHT22;60030;52.274;8.040;2022-08-18T12:35:48;25.90;99.90
71367;DHT22;60030;52.274;8.040;2022-08-18T12:38:15;26.10;99.90
71367;DHT22;60030;52.274;8.040;2022-08-18T12:40:43;26.30;99.90
71367;DHT22;60030;52.274;8.040;2022-08-18T12:43:11;27.00;99.90
71367;DHT22;60030;52.274;8.040;2022-08-18T12:45:39;27.80;99.90
71367;DHT22;60030;52.274;8.040;2022-08-18T12:48:07;28.30;99.90
71367;DHT22;60030;52.274;8.040;2022-08-18T12:50:35;28.10;99.90
71367;DHT22;60030;52.274;8.040;2022-08-18T12:53:02;28.00;99.90
71367;DHT22;60030;52.274;8.040;2022-08-18T12:55:33;28.10;99.90
71367;DHT22;60030;52.274;8.040;2022-08-18T12:58:00;28.10;99.90
71367;DHT22;60030;52.274;8.040;2022-08-18T13:00:28;28.50;99.90
71367;DHT22;60030;52.274;8.040;2022-08-18T13:02:57;28.70;99.40
71367;DHT22;60030;52.274;8.040;2022-08-18T13:05:24;28.90;98.20
71367;DHT22;60030;52.274;8.040;2022-08-18T13:07:51;29.00;97.00
71367;DHT22;60030;52.274;8.040;2022-08-18T13:10:18;28.60;96.70
71367;DHT22;60030;52.274;8.040;2022-08-18T13:12:45;28.90;96.70
71367;DHT22;60030;52.274;8.040;2022-08-18T13:15:13;29.20;95.90
71367;DHT22;60030;52.274;8.040;2022-08-18T13:17:40;29.40;94.70
71367;DHT22;60030;52.274;8.040;2022-08-18T13:20:11;29.30;94.60
71367;DHT22;60030;52.274;8.040;2022-08-18T13:22:39;29.60;94.00
71367;DHT22;60030;52.274;8.040;2022-08-18T13:25:09;28.80;94.50
71367;DHT22;60030;52.274;8.040;2022-08-18T13:27:37;28.60;95.10
71367;DHT22;60030;52.274;8.040;2022-08-18T13:30:06;28.60;95.60
71367;DHT22;60030;52.274;8.040;2022-08-18T13:32:34;29.10;95.30
71367;DHT22;60030;52.274;8.040;2022-08-18T13:35:01;30.30;93.90
71367;DHT22;60030;52.274;8.040;2022-08-18T13:37:30;31.00;91.80
71367;DHT22;60030;52.274;8.040;2022-08-18T13:39:58;31.90;89.20
71367;DHT22;60030;52.274;8.040;2022-08-18T13:42:25;32.50;85.10
71367;DHT22;60030;52.274;8.040;2022-08-18T13:44:54;30.90;87.20
71367;DHT22;60030;52.274;8.040;2022-08-18T13:47:24;30.00;89.60
71367;DHT22;60030;52.274;8.040;2022-08-18T13:49:54;29.90;90.60
71367;DHT22;60030;52.274;8.040;2022-08-18T13:52:21;30.50;88.40
71367;DHT22;60030;52.274;8.040;2022-08-18T13:54:50;30.00;88.80
71367;DHT22;60030;52.274;8.040;2022-08-18T13:57:17;30.10;90.00
71367;DHT22;60030;52.274;8.040;2022-08-18T13:59:44;30.70;89.10
71367;DHT22;60030;52.274;8.040;2022-08-18T14:02:12;32.10;84.00
71367;DHT22;60030;52.274;8.040;2022-08-18T14:04:39;32.60;81.30
71367;DHT22;60030;52.274;8.040;2022-08-18T14:07:06;32.00;81.60
71367;DHT22;60030;52.274;8.040;2022-08-18T14:09:34;30.00;86.40
71367;DHT22;60030;52.274;8.040;2022-08-18T14:12:04;29.20;89.30
71367;DHT22;60030;52.274;8.040;2022-08-18T14:14:32;29.10;90.30
71367;DHT22;60030;52.274;8.040;2022-08-18T14:16:59;28.90;90.70
71367;DHT22;60030;52.274;8.040;2022-08-18T14:19:26;28.40;91.80
71367;DHT22;60030;52.274;8.040;2022-08-18T14:22:11;28.50;91.80
71367;DHT22;60030;52.274;8.040;2022-08-18T14:24:55;28.60;92.20
71367;DHT22;60030;52.274;8.040;2022-08-18T14:27:41;28.70;92.30
71367;DHT22;60030;52.274;8.040;2022-08-18T14:30:11;28.70;92.70
71367;DHT22;60030;52.274;8.040;2022-08-18T14:32:40;28.80;92.80
71367;DHT22;60030;52.274;8.040;2022-08-18T14:35:09;28.60;93.10
71367;DHT22;60030;52.274;8.040;2022-08-18T14:37:37;28.60;92.70
71367;DHT22;60030;52.274;8.040;2022-08-18T14:40:05;28.80;92.60
71367;DHT22;60030;52.274;8.040;2022-08-18T14:42:33;28.40;92.80
71367;DHT22;60030;52.274;8.040;2022-08-18T14:45:03;28.10;93.50
71367;DHT22;60030;52.274;8.040;2022-08-18T14:47:32;28.20;93.40
71367;DHT22;60030;52.274;8.040;2022-08-18T14:49:59;28.30;93.50
71367;DHT22;60030;52.274;8.040;2022-08-18T14:52:26;28.30;93.50
71367;DHT22;60030;52.274;8.040;2022-08-18T14:54:53;28.20;93.90
71367;DHT22;60030;52.274;8.040;2022-08-18T14:57:21;28.20;94.10
71367;DHT22;60030;52.274;8.040;2022-08-18T14:59:51;28.10;94.00
71367;DHT22;60030;52.274;8.040;2022-08-18T15:02:21;27.80;95.30
71367;DHT22;60030;52.274;8.040;2022-08-18T15:04:48;28.20;95.30
71367;DHT22;60030;52.274;8.040;2022-08-18T15:07:15;28.20;95.10
71367;DHT22;60030;52.274;8.040;2022-08-18T15:09:42;28.20;95.20
71367;DHT22;60030;52.274;8.040;2022-08-18T15:12:09;28.10;95.30
71367;DHT22;60030;52.274;8.040;2022-08-18T15:14:36;27.80;95.90
71367;DHT22;60030;52.274;8.040;2022-08-18T15:17:04;27.80;95.80
71367;DHT22;60030;52.274;8.040;2022-08-18T15:19:33;28.10;95.80
71367;DHT22;60030;52.274;8.040;2022-08-18T15:22:00;28.50;94.70
71367;DHT22;60030;52.274;8.040;2022-08-18T15:24:56;28.60;94.60
71367;DHT22;60030;52.274;8.040;2022-08-18T15:27:40;28.20;94.90
71367;DHT22;60030;52.274;8.040;2022-08-18T15:30:11;28.00;95.10
71367;DHT22;60030;52.274;8.040;2022-08-18T15:32:40;27.70;96.30
71367;DHT22;60030;52.274;8.040;2022-08-18T15:35:09;27.90;96.40
71367;DHT22;60030;52.274;8.040;2022-08-18T15:37:36;27.80;96.40
71367;DHT22;60030;52.274;8.040;2022-08-18T15:40:09;27.80;96.30
71367;DHT22;60030;52.274;8.040;2022-08-18T15:42:42;27.60;96.70
71367;DHT22;60030;52.274;8.040;2022-08-18T15:45:12;27.50;97.20
71367;DHT22;60030;52.274;8.040;2022-08-18T15:47:41;27.10;97.90
71367;DHT22;60030;52.274;8.040;2022-08-18T15:50:11;27.30;97.70
71367;DHT22;60030;52.274;8.040;2022-08-18T15:52:45;30.00;94.10
71367;DHT22;60030;52.274;8.040;2022-08-18T15:55:15;29.60;93.00
71367;DHT22;60030;52.274;8.040;2022-08-18T15:57:42;29.50;93.60
71367;DHT22;60030;52.274;8.040;2022-08-18T16:00:10;29.30;93.70
71367;DHT22;60030;52.274;8.040;2022-08-18T16:02:47;29.40;93.10
71367;DHT22;60030;52.274;8.040;2022-08-18T16:05:18;29.40;92.90
71367;DHT22;60030;52.274;8.040;2022-08-18T16:07:46;29.20;93.00
71367;DHT22;60030;52.274;8.040;2022-08-18T16:10:15;29.00;93.50
71367;DHT22;60030;52.274;8.040;2022-08-18T16:12:43;28.60;94.10
71367;DHT22;60030;52.274;8.040;2022-08-18T16:15:11;28.20;94.60
71367;DHT22;60030;52.274;8.040;2022-08-18T16:17:38;28.10;95.00
71367;DHT22;60030;52.274;8.040;2022-08-18T16:20:06;28.40;94.70